createdAt,value
2018-08-31T00:01:56.361Z,14.07
2018-08-31T00:06:43.290Z,15.17
2018-08-31T00:09:24.482Z,13.07
2018-08-31T00:13:06.489Z,13.73
2018-08-31T00:15:36.209Z,14.57
2018-08-31T00:18:06.778Z,13.83
2018-08-31T00:20:37.389Z,14.53
2018-08-31T00:23:08.983Z,13.33
2018-08-31T00:26:17.535Z,14.00
2018-08-31T00:29:45.319Z,13.03
2018-08-31T00:32:25.853Z,13.27
2018-08-31T00:37:08.841Z,13.40
2018-08-31T00:39:56.153Z,14.27
2018-08-31T00:42:39.660Z,14.03
2018-08-31T00:45:19.272Z,14.13
2018-08-31T00:47:48.946Z,14.57
2018-08-31T00:50:18.511Z,14.87
2018-08-31T00:52:48.337Z,14.23
2018-08-31T00:55:18.503Z,15.57
2018-08-31T00:57:52.391Z,15.83
2018-08-31T01:00:23.154Z,15.53
2018-08-31T01:02:52.814Z,14.70
2018-08-31T01:05:22.585Z,15.03
2018-08-31T01:07:52.733Z,15.80
2018-08-31T01:10:24.567Z,15.00
2018-08-31T01:12:55.855Z,14.00
2018-08-31T01:15:27.789Z,14.40
2018-08-31T01:17:57.572Z,14.30
2018-08-31T01:20:27.380Z,16.17
2018-08-31T01:22:56.992Z,15.77
2018-08-31T01:25:27.085Z,14.13
2018-08-31T01:27:56.842Z,14.87
2018-08-31T01:30:26.880Z,14.53
2018-08-31T01:32:57.927Z,15.17
2018-08-31T01:35:27.883Z,16.23
2018-08-31T01:37:57.964Z,15.73
2018-08-31T01:40:27.788Z,14.43
2018-08-31T01:42:57.526Z,14.80
2018-08-31T01:45:27.590Z,16.03
2018-08-31T01:47:57.235Z,16.73
2018-08-31T01:50:27.210Z,15.60
2018-08-31T01:52:56.815Z,16.50
2018-08-31T01:55:31.585Z,15.27
2018-08-31T01:58:02.877Z,14.70
2018-08-31T02:00:33.888Z,16.47
2018-08-31T02:03:03.554Z,17.07
2018-08-31T02:05:34.261Z,16.50
2018-08-31T02:08:03.882Z,16.20
2018-08-31T02:10:34.675Z,16.27
2018-08-31T02:13:04.485Z,13.93
2018-08-31T02:15:34.090Z,17.27
2018-08-31T02:18:03.808Z,16.73
2018-08-31T02:20:37.028Z,18.20
2018-08-31T02:23:07.442Z,17.90
2018-08-31T02:25:38.115Z,17.07
2018-08-31T02:28:08.225Z,17.73
2018-08-31T02:30:39.133Z,16.97
2018-08-31T02:33:11.501Z,18.17
2018-08-31T02:35:41.324Z,19.50
2018-08-31T02:38:12.056Z,20.40
2018-08-31T02:40:41.714Z,21.30
2018-08-31T02:43:12.288Z,22.17
2018-08-31T02:45:42.322Z,21.27
2018-08-31T02:48:17.563Z,21.00
2018-08-31T02:50:49.161Z,22.57
2018-08-31T02:53:23.826Z,23.60
2018-08-31T02:55:53.374Z,23.43
2018-08-31T02:58:23.480Z,23.93
2018-08-31T03:00:53.108Z,24.73
2018-08-31T03:03:22.964Z,25.70
2018-08-31T03:05:54.684Z,27.90
2018-08-31T03:08:24.439Z,27.63
2018-08-31T03:10:54.435Z,28.80
2018-08-31T03:13:23.947Z,30.20
2018-08-31T03:15:53.783Z,29.73
2018-08-31T03:18:23.636Z,31.17
2018-08-31T03:20:54.302Z,31.90
2018-08-31T03:23:23.942Z,32.77
2018-08-31T03:25:53.872Z,32.90
2018-08-31T03:28:25.410Z,33.50
2018-08-31T03:30:56.699Z,33.93
2018-08-31T03:33:27.776Z,33.23
2018-08-31T03:35:58.447Z,33.90
2018-08-31T03:38:28.112Z,33.83
2018-08-31T03:40:57.788Z,36.27
2018-08-31T03:43:27.300Z,34.33
2018-08-31T03:45:57.228Z,34.57
2018-08-31T03:48:27.922Z,34.90
2018-08-31T03:50:59.787Z,34.00
2018-08-31T03:53:29.451Z,35.33
2018-08-31T03:56:00.302Z,34.50
2018-08-31T03:58:30.017Z,33.47
2018-08-31T04:01:00.765Z,34.57
2018-08-31T04:03:31.156Z,35.47
2018-08-31T04:06:00.624Z,37.20
2018-08-31T04:08:30.146Z,38.60
2018-08-31T04:11:00.532Z,36.60
2018-08-31T04:13:30.092Z,37.60
2018-08-31T04:15:59.697Z,43.23
2018-08-31T04:18:29.259Z,40.47
2018-08-31T04:20:59.847Z,37.90
2018-08-31T04:23:30.654Z,41.30
2018-08-31T04:26:02.089Z,43.83
2018-08-31T04:28:31.622Z,44.93
2018-08-31T04:31:01.243Z,45.40
2018-08-31T04:33:35.049Z,45.07
2018-08-31T04:36:07.759Z,46.63
2018-08-31T04:38:37.701Z,46.73
2018-08-31T04:41:09.508Z,50.47
2018-08-31T04:43:41.178Z,51.57
2018-08-31T04:46:10.733Z,47.77
2018-08-31T04:48:46.364Z,46.83
2018-08-31T04:51:16.503Z,47.23
2018-08-31T04:53:50.525Z,49.20
2018-08-31T04:56:21.036Z,50.47
2018-08-31T04:58:50.784Z,47.00
2018-08-31T05:01:20.624Z,47.27
2018-08-31T05:03:51.332Z,46.10
2018-08-31T05:06:21.876Z,50.00
2018-08-31T05:08:51.506Z,48.40
2018-08-31T05:11:25.385Z,48.87
2018-08-31T05:13:57.092Z,46.67
2018-08-31T05:16:27.288Z,46.13
2018-08-31T05:19:01.027Z,46.80
2018-08-31T05:21:30.764Z,48.00
2018-08-31T05:24:00.530Z,45.80
2018-08-31T05:26:31.140Z,47.63
2018-08-31T05:29:01.848Z,47.77
2018-08-31T05:31:32.387Z,47.43
2018-08-31T05:34:03.069Z,49.13
2018-08-31T05:36:32.763Z,48.00
2018-08-31T05:39:02.577Z,48.90
2018-08-31T05:41:32.216Z,46.97
2018-08-31T05:44:02.743Z,46.23
2018-08-31T05:46:32.316Z,45.43
2018-08-31T05:49:01.900Z,43.83
2018-08-31T05:51:32.430Z,43.33
2018-08-31T05:54:02.163Z,45.37
2018-08-31T05:56:31.797Z,46.23
2018-08-31T05:59:02.653Z,45.33
2018-08-31T06:01:34.511Z,43.37
2018-08-31T06:04:04.164Z,44.03
2018-08-31T06:06:33.814Z,44.63
2018-08-31T06:09:06.566Z,45.10
2018-08-31T06:11:36.227Z,42.90
2018-08-31T06:14:06.035Z,45.77
2018-08-31T06:16:35.992Z,43.33
2018-08-31T06:19:06.614Z,45.50
2018-08-31T06:21:41.534Z,43.97
2018-08-31T06:24:11.605Z,43.60
2018-08-31T06:26:41.624Z,41.03
2018-08-31T06:29:11.528Z,39.07
2018-08-31T06:31:41.610Z,34.70
2018-08-31T06:34:11.428Z,32.23
2018-08-31T06:36:41.478Z,35.43
2018-08-31T06:39:13.629Z,32.23
2018-08-31T06:41:47.636Z,32.37
2018-08-31T06:44:17.820Z,29.00
2018-08-31T06:46:48.252Z,33.03
2018-08-31T06:49:17.905Z,32.57
2018-08-31T06:51:49.346Z,33.20
2018-08-31T06:54:19.776Z,31.23
2018-08-31T06:56:49.872Z,34.93
2018-08-31T06:59:20.731Z,30.57
2018-08-31T07:01:50.377Z,32.87
2018-08-31T07:04:20.424Z,32.20
2018-08-31T07:06:50.219Z,33.23
2018-08-31T07:09:20.186Z,31.70
2018-08-31T07:11:50.358Z,33.30
2018-08-31T07:14:20.424Z,33.97
2018-08-31T07:16:50.148Z,32.13
2018-08-31T07:19:20.220Z,32.83
2018-08-31T07:21:50.909Z,32.43
2018-08-31T07:24:20.584Z,29.33
2018-08-31T07:26:51.337Z,27.50
2018-08-31T07:29:23.551Z,27.83
2018-08-31T07:31:54.328Z,28.40
2018-08-31T07:34:23.992Z,20.00
2018-08-31T07:36:55.604Z,16.27
2018-08-31T07:39:31.099Z,15.97
2018-08-31T07:42:13.212Z,13.00
2018-08-31T07:44:51.873Z,14.20
2018-08-31T07:47:26.668Z,13.80
2018-08-31T07:50:13.478Z,11.47
2018-08-31T07:52:45.357Z,11.00
2018-08-31T07:55:27.399Z,10.77
2018-08-31T07:58:06.034Z,10.13
2018-08-31T08:00:37.036Z,10.30
2018-08-31T08:03:23.360Z,9.57
2018-08-31T08:05:58.556Z,10.10
2018-08-31T08:08:35.065Z,11.00
2018-08-31T08:11:11.885Z,12.00
2018-08-31T08:13:55.466Z,12.37
2018-08-31T08:16:29.439Z,13.07
2018-08-31T08:19:00.039Z,14.90
2018-08-31T08:21:39.721Z,13.53
2018-08-31T08:24:24.078Z,11.33
2018-08-31T08:27:02.234Z,10.40
2018-08-31T08:29:33.064Z,10.80
2018-08-31T08:32:20.265Z,10.53
2018-08-31T08:35:00.537Z,10.17
2018-08-31T08:37:46.287Z,10.00
2018-08-31T08:40:36.543Z,10.30
2018-08-31T08:46:19.028Z,10.77
2018-08-31T08:48:50.766Z,10.67
2018-08-31T08:51:28.883Z,10.10
2018-08-31T08:54:08.981Z,10.53
2018-08-31T08:56:42.587Z,10.23
2018-08-31T08:59:31.022Z,10.60
2018-08-31T09:02:07.589Z,10.57
2018-08-31T09:04:49.210Z,10.40
2018-08-31T09:07:29.674Z,10.47
2018-08-31T09:10:02.767Z,10.53
2018-08-31T09:12:33.127Z,11.47
2018-08-31T09:15:05.361Z,11.80
2018-08-31T09:17:35.776Z,12.43
2018-08-31T09:20:07.731Z,13.67
2018-08-31T09:22:38.910Z,19.63
2018-08-31T09:25:10.974Z,22.90
2018-08-31T09:27:41.220Z,24.00
2018-08-31T09:30:16.982Z,23.27
2018-08-31T09:32:47.942Z,25.73
2018-08-31T09:35:18.017Z,27.33
2018-08-31T09:37:48.564Z,27.37
2018-08-31T09:40:19.689Z,25.80
2018-08-31T09:42:49.959Z,27.30
2018-08-31T09:45:24.099Z,29.60
2018-08-31T09:47:55.304Z,27.03
2018-08-31T09:50:26.047Z,26.53
2018-08-31T09:52:55.803Z,26.10
2018-08-31T09:55:27.090Z,28.30
2018-08-31T09:57:57.321Z,28.20
2018-08-31T10:00:32.158Z,28.00
2018-08-31T10:03:11.301Z,26.57
2018-08-31T10:05:41.555Z,28.53
2018-08-31T10:08:13.971Z,27.43
2018-08-31T10:11:09.972Z,27.40
2018-08-31T10:16:36.728Z,27.70
2018-08-31T10:22:05.023Z,27.20
2018-08-31T10:24:42.187Z,26.00
2018-08-31T10:30:21.548Z,25.73
2018-08-31T10:33:08.572Z,28.03
2018-08-31T10:41:43.730Z,28.07
2018-08-31T10:44:21.532Z,26.30
2018-08-31T10:47:00.825Z,27.63
2018-08-31T10:49:32.506Z,27.27
2018-08-31T10:52:06.295Z,26.23
2018-08-31T10:54:47.714Z,25.70
2018-08-31T10:57:21.099Z,24.37
2018-08-31T10:59:52.118Z,26.03
2018-08-31T11:05:26.281Z,27.33
2018-08-31T11:08:00.396Z,25.23
2018-08-31T11:13:33.456Z,24.77
2018-08-31T11:16:19.164Z,25.83
2018-08-31T11:18:50.238Z,23.60
2018-08-31T11:21:20.859Z,22.17
2018-08-31T11:23:51.612Z,21.93
2018-08-31T11:26:27.362Z,22.70
2018-08-31T11:28:57.821Z,22.07
2018-08-31T11:31:34.346Z,21.57
2018-08-31T11:34:05.421Z,25.63
2018-08-31T11:36:36.632Z,28.33
2018-08-31T11:39:13.304Z,30.47
2018-08-31T11:41:44.860Z,34.57
2018-08-31T11:44:30.143Z,34.03
2018-08-31T11:47:00.425Z,36.37
2018-08-31T11:49:30.403Z,34.73
2018-08-31T11:52:10.384Z,36.53
2018-08-31T11:54:46.166Z,35.30
2018-08-31T11:57:19.336Z,40.37
2018-08-31T12:06:03.640Z,43.23
2018-08-31T12:08:44.696Z,43.40
2018-08-31T12:14:13.224Z,40.97
2018-08-31T12:17:00.186Z,37.13
2018-08-31T12:19:39.661Z,31.20
2018-08-31T12:28:03.779Z,29.37
2018-08-31T12:30:45.184Z,27.47
2018-08-31T12:42:06.573Z,16.77
2018-08-31T12:44:38.903Z,15.80
2018-08-31T12:47:13.439Z,13.93
2018-08-31T12:49:57.978Z,13.33
2018-08-31T13:01:26.284Z,13.80
2018-08-31T13:04:00.683Z,14.93
2018-08-31T13:09:34.908Z,13.03
2018-08-31T13:12:24.724Z,11.80
2018-08-31T13:17:52.244Z,12.27
2018-08-31T13:20:32.175Z,10.40
2018-08-31T13:23:21.334Z,7.60
2018-08-31T13:35:08.055Z,8.17
2018-08-31T13:40:40.437Z,5.67
2018-08-31T13:46:09.321Z,6.80
2018-08-31T13:48:55.361Z,7.03
2018-08-31T13:57:22.888Z,6.73
2018-08-31T14:00:12.925Z,6.93
2018-08-31T14:02:44.253Z,7.00
2018-08-31T14:05:25.112Z,6.87
2018-08-31T14:08:05.979Z,6.80
2018-08-31T14:31:10.991Z,7.13
2018-08-31T14:43:33.759Z,6.23
2018-08-31T14:46:06.115Z,6.27
2018-08-31T14:48:36.466Z,7.23
2018-08-31T14:51:07.612Z,7.70
2018-08-31T14:53:51.555Z,6.33
2018-08-31T14:56:23.664Z,6.93
2018-08-31T15:02:05.040Z,7.40
2018-08-31T15:04:45.968Z,6.40
2018-08-31T15:19:18.278Z,7.17
2018-08-31T15:24:45.074Z,6.43
2018-08-31T15:27:25.117Z,4.63
2018-08-31T15:30:08.474Z,3.97
2018-08-31T15:36:08.282Z,3.50
2018-08-31T15:50:47.718Z,6.90
2018-08-31T15:53:28.008Z,6.90
2018-08-31T16:25:27.028Z,5.47
2018-08-31T17:01:55.568Z,4.13
2018-08-31T17:22:06.528Z,1.80
2018-08-31T17:45:10.544Z,4.33
2018-08-31T18:06:13.790Z,5.13
2018-08-31T18:08:54.045Z,5.03
2018-08-31T18:11:38.566Z,7.07
2018-08-31T19:34:00.805Z,9.10
2018-08-31T19:55:18.415Z,7.40
2018-08-31T19:57:50.225Z,8.17
2018-08-31T20:00:21.189Z,7.87
2018-08-31T20:03:04.952Z,8.87
2018-08-31T20:54:58.563Z,5.30
2018-08-31T20:57:53.855Z,4.97
2018-08-31T21:17:55.361Z,5.13
2018-08-31T21:20:43.263Z,4.93
2018-08-31T21:23:14.997Z,5.57
2018-08-31T21:25:54.012Z,5.47
2018-08-31T21:35:33.749Z,4.70
2018-08-31T21:38:44.978Z,4.70
2018-08-31T21:52:15.816Z,5.73
2018-08-31T22:01:33.447Z,6.10
2018-08-31T22:07:50.891Z,6.10
2018-08-31T22:10:24.030Z,6.60
2018-08-31T22:13:02.728Z,6.93
2018-08-31T22:15:33.899Z,6.23
2018-08-31T22:27:45.510Z,6.90
2018-08-31T22:30:34.336Z,7.57
2018-08-31T22:43:07.322Z,8.13
2018-08-31T22:45:39.189Z,9.10
2018-08-31T22:48:11.751Z,9.77
2018-08-31T22:51:17.268Z,10.40
2018-08-31T22:53:48.880Z,10.30
2018-08-31T23:13:01.002Z,13.93
2018-08-31T23:39:51.768Z,11.23
